AirNav   Duncan Aviation - Near you to keep you flying
 
 1050 users online  

9CL9 Spezia Airport
Walnut Grove, California, USA

GOING TO WALNUT GROVE?


FAA INFORMATION EFFECTIVE 01 DECEMBER 2022

Location

FAA Identifier: 9CL9
Lat/Long: 38-12-59.6960N 121-32-03.8300W
38-12.994933N 121-32.063833W
38.2165822,-121.5343972
(estimated)
Elevation: 0 ft. / 0 m (estimated)
Variation: 16E (1985)
From city: 3 miles SW of WALNUT GROVE, CA
Time zone: UTC -8 (UTC -7 during Daylight Saving Time)
Zip code: 95690

Airport Operations

Airport use: Private use. Permission required prior to landing
Activation date: 04/1949
Control tower: no
ARTCC: OAKLAND CENTER
FSS: RANCHO MURIETA FLIGHT SERVICE STATION
Attendance: IREG
Pattern altitude: 800 ft. MSL
Wind indicator: yes
Segmented circle: no

Airport Communications

WX AWOS-AV at O88 (8 nm W): 127.075 (707-374-5396)
WX ASOS at SAC (18 nm N): PHONE 916-421-0923

Nearby radio navigation aids

VOR radial/distance  VOR name  Freq  Var
SACr160/13.7SACRAMENTO VORTAC115.2017E
CCRr050/26.2CONCORD VOR/DME117.0017E
LINr272/26.4LINDEN VOR/DME114.8017E
MCCr176/27.7MC CLELLAN VOR/DME109.2017E
SGDr070/39.6SCAGGS ISLAND VORTAC112.1017E

Airport Services

Parking: hangars
Airframe service: NONE
Powerplant service: NONE
Bottled oxygen: NONE
Bulk oxygen: NONE

Runway Information

Runway 7/25

Dimensions: 2500 x 100 ft. / 762 x 30 m
Surface: dirt
RUNWAY 7  RUNWAY 25
Traffic pattern: leftleft
Runway end identifier lights: nono
Obstructions: pline, 1700 ft. from runwaybldg

Airport Ownership and Management from official FAA records

Ownership: Privately-owned
Owner: ALEXANDER AG FLYING SVC INC
BOX 608
RIO VISTA, CA 94571
Phone 916-776-1579
Manager: VICTOR D. SPEZIA
BOX 67
WALNUT GROVE, CA 95690
Phone 916-776-1579

Airport Operational Statistics

Aircraft based on the field: 4
Single engine airplanes: 4
    

Additional Remarks

E98 6 SHADE HANGARS.
FOR CD CTC NORCAL APCH AT 916-361-6874.

Instrument Procedures

There are no published instrument procedures at 9CL9.

Some nearby airports with instrument procedures:

O88 - Rio Vista Municipal Airport (8 nm W)
1O3 - Lodi Airport (13 nm E)
KSAC - Sacramento Executive Airport (18 nm N)
KSUU - Travis Air Force Base (19 nm W)
KEDU - University Airport (22 nm NW)
 
Loc | Ops | Rwys | IFR | FBO | Links
Com | Nav | Svcs | Stats | Notes
Area around 9CL9 (Spezia Airport)
 
Road maps at: MapQuest Bing Google
 
Aerial photo
WARNING: Photo may not be current or correct
Aerial photo of 9CL9 (Spezia Airport)
Photo by Tom Neale
Photo taken 09-Apr-2017
looking west.

Do you have a better or more recent aerial photo of Spezia Airport that you would like to share? If so, please send us your photo.

 
Sectional chart

 
Airport distance calculator
Flying to Spezia Airport? Find the distance to fly.

From to 9CL9

Sunrise and sunset
Times for 06-Dec-2022
 Local
(UTC-8)
 Zulu
(UTC)
Morning civil twilight06:4014:40
Sunrise07:1015:10
Sunset16:4500:45
Evening civil twilight17:1401:14

Current date and time
Zulu (UTC)  07-Dec-2022 03:45:59
Local (UTC-8)  06-Dec-2022 19:45:59
 
METAR
KSAC 
17nm N 
070253Z 00000KT CLR 08/06 A3008 RMK AO2 SLP186 T00830061 53007 $
KSUU 
18nm W 
070255Z AUTO 00000KT 10SM CLR 06/04 A3007 RMK AO2 SLP190 T00620037 52005 $
KVCB 
22nm NW 
070253Z AUTO 31003KT 10SM CLR 06/04 A3009 RMK AO2 SLP189 T00610039 53005
KEDU 
22nm NW 
070335Z AUTO 00000KT 10SM CLR 08/05 A3010 RMK AO1
KMHR 
22nm NE 
070335Z AUTO 00000KT 10SM CLR 07/06 A3008 RMK A01
KC83 
24nm S 
070335Z AUTO 26006KT 10SM FEW042 08/06 A3009 RMK AO2
KSCK 
25nm SE 
070255Z 28004KT 10SM CLR 08/07 A3007 RMK AO2 SLP183 T00830067 51007
KDWA 
27nm NW 
070335Z AUTO 00000KT 10SM SCT029 BKN037 OVC049 08/05 A3011 RMK AO2
KCCR 
28nm SW 
070253Z 00000KT 10SM CLR 08/06 A3009 RMK AO2 SLP175 T00830056 53008
KMCC 
28nm N 
070335Z AUTO 00000KT 10SM CLR 09/06 A3009 RMK AO2
TAF
KSAC 
17nm N 
061734Z 0618/0718 VRB05KT P6SM BKN050 BKN150 FM062000 VRB05KT P6SM SCT250 FM070900 VRB02KT 4SM BR SCT250 FM071500 00000KT 1 1/2SM BR FEW250 FM071700 19002KT P6SM FEW250
KSUU 
18nm W 
062349Z 0623/0801 01010G15KT 9999 BKN050 QNH3006INS BECMG 0710/0711 23006KT 4800 BR SKC QNH3013INS TEMPO 0711/0717 0800 FG BECMG 0717/0718 VRB06KT 9999 NSW FEW200 QNH3021INS TX14/0623Z TN01/0714Z
NOTAMs
Click for the latest NOTAMs
NOTAMs are issued by the DoD/FAA and will open in a separate window not controlled by AirNav.

 

 
 

Would you like to see your business listed on this page?

 If your business provides an interesting product or service to pilots, flight crews, aircraft, or users of the Spezia Airport, you should consider listing it here.  To start the listing process, click on the button below
 
Add a business
 

Other Pages about Spezia Airport

Update a link
 
Copyright © AirNav, LLC. All rights reserved. Privacy Policy  Contact